Time;durP1;ratioP1;P1;durP2;ratioP2;P2;SDS_P1;SDS_P2;PMS_P1;PMS_P2;Temp;Humidity;BMP_temperature;BMP_pressure;BME280_temperature;BME280_humidity;BME280_pressure;Samples;Min_cycle;Max_cycle;Signal;HPM_P1;HPM_P2
2022/03/21 01:36:46;;;;;;;;;;;9.40;99.20;;;5.18;100.00;102596.72;163168;46;150628869;31
2022/03/21 01:39:14;;;;;;;;;;;6.80;99.90;;;5.11;100.00;102587.44;2568931;30;136894;-41
2022/03/21 01:41:42;;;;;;;;;;;6.70;99.90;;;5.12;100.00;102592.69;2567801;30;138836;-42
2022/03/21 01:44:10;;;;;;;;;;;6.70;99.90;;;5.10;100.00;102594.69;2569422;30;137030;-42
2022/03/21 01:46:39;;;;;;;;;;;6.60;99.90;;;5.09;100.00;102597.53;2569502;30;137917;-41
2022/03/21 01:49:09;;;;;;;;;;;6.60;99.90;;;5.08;100.00;102591.25;2568345;30;137102;-41
2022/03/21 01:51:37;;;;;;;;;;;6.60;99.90;;;5.08;100.00;102585.00;2569944;30;138506;-41
2022/03/21 01:56:52;;;;;;;;;;;6.60;99.90;;;5.01;100.00;102590.91;2569111;30;137352;-41
2022/03/21 01:59:20;;;;;;;;;;;6.50;99.90;;;5.00;100.00;102591.91;2567212;30;137654;-43
2022/03/21 02:01:49;;;;;;;;;;;6.50;99.90;;;4.97;100.00;102594.03;2566577;30;137413;-41
2022/03/21 02:04:17;;;;;;;;;;;6.50;99.90;;;4.92;100.00;102594.41;2567774;30;137175;-41
2022/03/21 02:06:45;;;;;;;;;;;6.50;99.90;;;4.88;100.00;102585.69;2567404;30;138236;-41
2022/03/21 02:09:13;;;;;;;;;;;6.40;99.90;;;4.87;100.00;102583.16;2568110;30;137472;-41
2022/03/21 02:11:41;;;;;;;;;;;6.40;99.90;;;4.84;100.00;102586.13;2569832;30;137042;-42
2022/03/21 02:14:10;;;;;;;;;;;6.40;99.90;;;4.77;100.00;102572.25;2567692;30;137101;-42
2022/03/21 02:16:39;;;;;;;;;;;6.40;99.90;;;4.86;100.00;102581.44;2569754;30;138318;-41
2022/03/21 02:19:15;;;;;;;;;;;6.40;99.90;;;4.85;100.00;102571.59;2569065;30;136910;-41
2022/03/21 02:21:54;;;;;;;;;;;6.40;99.90;;;4.83;100.00;102582.53;2568544;30;138412;-42
2022/03/21 02:24:42;;;;;;;;;;;6.30;99.90;;;4.82;100.00;102586.22;2569393;30;136929;-41
2022/03/21 02:27:11;;;;;;;;;;;6.30;99.90;;;4.71;100.00;102557.41;2566448;30;138109;-41
2022/03/21 02:29:41;;;;;;;;;;;6.30;99.90;;;4.82;100.00;102577.28;2567869;30;137423;-41
2022/03/21 02:32:08;;;;;;;;;;;6.40;99.90;;;4.80;100.00;102569.28;2569379;30;139027;-41
2022/03/21 02:34:38;;;;;;;;;;;6.30;99.90;;;4.78;100.00;102578.53;2565909;30;137291;-42
2022/03/21 02:37:09;;;;;;;;;;;6.30;99.90;;;4.72;100.00;102574.50;2570425;30;138818;-41
2022/03/21 02:39:38;;;;;;;;;;;6.30;99.90;;;4.67;100.00;102577.59;2571971;30;137106;-41
2022/03/21 02:42:06;;;;;;;;;;;6.20;99.90;;;4.63;100.00;102576.13;2569257;30;139101;-41
2022/03/21 02:44:35;;;;;;;;;;;6.20;99.90;;;4.58;100.00;102572.97;2569499;30;137332;-41
2022/03/21 02:47:04;;;;;;;;;;;6.10;99.90;;;4.46;100.00;102567.59;2572266;30;138192;-41
2022/03/21 02:49:32;;;;;;;;;;;6.10;99.90;;;4.45;100.00;102574.00;2571284;30;137120;-42
2022/03/21 02:52:04;;;;;;;;;;;6.00;99.90;;;4.44;100.00;102572.28;2567621;30;137755;-41
2022/03/21 02:54:32;;;;;;;;;;;6.00;99.90;;;4.36;100.00;102574.78;2571476;30;137020;-41
2022/03/21 02:57:00;;;;;;;;;;;5.90;99.90;;;4.26;100.00;102573.84;2567607;30;138428;-42
2022/03/21 02:59:28;;;;;;;;;;;5.80;99.90;;;4.14;100.00;102571.16;2568496;30;137086;-41
2022/03/21 03:01:56;;;;;;;;;;;5.70;99.90;;;4.02;100.00;102582.97;2570803;30;138358;-41
2022/03/21 03:04:25;;;;;;;;;;;5.60;99.90;;;3.94;100.00;102582.72;2569511;30;137849;-40
2022/03/21 03:06:53;;;;;;;;;;;5.60;99.90;;;3.87;100.00;102575.13;2570771;30;139073;-41
2022/03/21 03:09:20;;;;;;;;;;;5.50;99.90;;;3.79;100.00;102569.50;2568986;30;137355;-41
2022/03/21 03:11:49;;;;;;;;;;;5.40;99.90;;;3.73;100.00;102578.94;2571212;30;138229;-41
2022/03/21 03:14:16;;;;;;;;;;;5.40;99.90;;;3.68;100.00;102580.31;2569924;30;136986;-41
2022/03/21 03:16:44;;;;;;;;;;;5.30;99.90;;;3.60;100.00;102573.69;2568147;30;138370;-41
2022/03/21 03:19:13;;;;;;;;;;;5.20;99.90;;;3.53;100.00;102572.47;2571172;30;137003;-41
2022/03/21 03:21:46;;;;;;;;;;;5.20;99.90;;;3.51;100.00;102578.97;2569052;30;137565;-41
2022/03/21 03:24:15;;;;;;;;;;;5.10;99.90;;;3.49;100.00;102578.22;2567625;30;137356;-41
2022/03/21 03:26:42;;;;;;;;;;;5.10;99.90;;;3.47;100.00;102578.38;2569746;30;138127;-41
2022/03/21 03:29:09;;;;;;;;;;;5.10;99.90;;;3.48;100.00;102579.22;2569272;30;137385;-41
2022/03/21 03:31:37;;;;;;;;;;;5.10;99.90;;;3.53;100.00;102588.66;2568369;30;137861;-41
2022/03/21 03:34:04;;;;;;;;;;;5.10;99.90;;;3.54;100.00;102584.97;2571567;30;137413;-41
2022/03/21 03:36:32;;;;;;;;;;;5.10;99.90;;;3.58;100.00;102582.88;2569542;30;139213;-41
2022/03/21 03:39:00;;;;;;;;;;;5.10;99.90;;;3.60;100.00;102584.47;2570923;30;136795;-41
2022/03/21 03:41:27;;;;;;;;;;;5.10;99.90;;;3.67;100.00;102579.47;2571187;30;138082;-41
2022/03/21 03:43:56;;;;;;;;;;;5.20;99.90;;;3.68;100.00;102572.19;2570628;30;136602;-41
2022/03/21 03:46:23;;;;;;;;;;;5.20;99.90;;;3.78;100.00;102575.91;2571591;30;138311;-41
2022/03/21 03:48:52;;;;;;;;;;;5.30;99.90;;;3.82;100.00;102576.47;2569027;30;136942;-41
2022/03/21 03:51:20;;;;;;;;;;;5.30;99.90;;;3.81;100.00;102585.56;2570227;30;137338;-41
2022/03/21 03:53:47;;;;;;;;;;;5.30;99.90;;;3.77;100.00;102574.19;2570053;30;136775;-41
2022/03/21 03:56:18;;;;;;;;;;;5.30;99.90;;;3.76;100.00;102582.38;2568312;30;138994;-41
2022/03/21 03:58:45;;;;;;;;;;;5.30;99.90;;;3.77;100.00;102576.88;2569350;30;137162;-41
2022/03/21 04:01:12;;;;;;;;;;;5.30;99.90;;;3.73;100.00;102578.94;2569533;30;139204;-41
2022/03/21 04:03:46;;;;;;;;;;;5.30;99.90;;;3.72;100.00;102579.94;2568603;30;137675;-41
2022/03/21 04:06:19;;;;;;;;;;;5.30;99.90;;;3.70;100.00;102584.59;2569116;30;138310;-41
2022/03/21 04:08:49;;;;;;;;;;;5.30;99.90;;;3.69;100.00;102579.31;2570958;30;137133;-41
2022/03/21 04:11:16;;;;;;;;;;;5.30;99.90;;;3.68;100.00;102583.00;2570971;30;137487;-41
2022/03/21 04:13:45;;;;;;;;;;;5.30;99.90;;;3.64;100.00;102582.41;2569730;30;136976;-41
2022/03/21 04:16:14;;;;;;;;;;;5.20;99.90;;;3.62;100.00;102578.97;2567049;30;138189;-41
2022/03/21 04:18:41;;;;;;;;;;;5.20;99.90;;;3.57;100.00;102581.16;2569627;30;137162;-41
2022/03/21 04:21:24;;;;;;;;;;;5.20;99.90;;;3.54;100.00;102584.09;2569802;30;137313;-41
2022/03/21 04:23:51;;;;;;;;;;;5.20;99.90;;;3.57;100.00;102583.84;2570458;30;137026;-42
2022/03/21 04:26:19;;;;;;;;;;;5.20;99.90;;;3.51;100.00;102584.34;2569881;30;138369;-41
2022/03/21 04:28:49;;;;;;;;;;;5.10;99.90;;;3.43;100.00;102595.75;2567847;30;137267;-41
2022/03/21 04:31:16;;;;;;;;;;;5.10;99.90;;;3.34;100.00;102593.78;2568404;30;139121;-41
2022/03/21 04:33:44;;;;;;;;;;;5.00;99.90;;;3.26;100.00;102602.50;2568134;30;137188;-41
2022/03/21 04:36:13;;;;;;;;;;;4.90;99.90;;;3.17;100.00;102599.53;2570340;30;138254;-41
2022/03/21 04:38:41;;;;;;;;;;;4.90;99.90;;;3.10;100.00;102606.41;2569537;30;136710;-41
2022/03/21 04:41:09;;;;;;;;;;;4.80;99.90;;;3.04;100.00;102609.56;2568822;30;139004;-41
2022/03/21 04:43:37;;;;;;;;;;;4.70;99.90;;;3.02;100.00;102603.41;2570317;30;137113;-41
2022/03/21 04:46:05;;;;;;;;;;;4.70;99.90;;;2.97;100.00;102611.00;2569238;30;137204;-41
2022/03/21 04:48:33;;;;;;;;;;;4.60;99.90;;;2.89;100.00;102606.19;2571315;30;137072;-42
2022/03/21 04:51:00;;;;;;;;;;;4.60;99.90;;;2.93;100.00;102613.09;2566664;30;138183;-41
2022/03/21 04:53:28;;;;;;;;;;;4.60;99.90;;;2.76;100.00;102600.91;2568560;30;137201;-41
2022/03/21 04:55:55;;;;;;;;;;;4.50;99.90;;;2.75;100.00;102619.91;2570740;30;137314;-41
2022/03/21 04:58:23;;;;;;;;;;;4.40;99.90;;;2.64;100.00;102623.41;2569611;30;137007;-41
2022/03/21 05:00:50;;;;;;;;;;;4.40;99.90;;;2.62;100.00;102622.66;2568388;30;138377;-41
2022/03/21 05:03:18;;;;;;;;;;;4.30;99.90;;;2.58;100.00;102620.19;2569350;30;137806;-41
2022/03/21 05:05:45;;;;;;;;;;;4.30;99.90;;;2.51;100.00;102618.91;2569746;30;138333;-41
2022/03/21 05:08:12;;;;;;;;;;;4.20;99.90;;;2.41;100.00;102621.47;2569423;30;137190;-41
2022/03/21 05:10:40;;;;;;;;;;;4.10;99.90;;;2.29;100.00;102620.53;2569925;30;139109;-41
2022/03/21 05:13:08;;;;;;;;;;;4.00;99.90;;;2.22;100.00;102621.09;2570343;30;136954;-41
2022/03/21 05:15:36;;;;;;;;;;;3.90;99.90;;;2.14;100.00;102618.97;2570653;30;137941;-41
2022/03/21 05:18:04;;;;;;;;;;;3.90;99.90;;;2.07;100.00;102626.63;2568276;30;137772;-41
2022/03/21 05:20:32;;;;;;;;;;;3.80;99.90;;;2.08;100.00;102628.34;2567398;30;139482;-41
2022/03/21 05:31:17;;;;;;;;;;;3.60;99.90;;;1.81;100.00;102626.69;2568889;30;137836;-41
2022/03/21 05:36:32;;;;;;;;;;;3.50;99.90;;;1.69;100.00;102630.28;2568854;30;139037;-41
2022/03/21 05:38:59;;;;;;;;;;;3.40;99.90;;;1.65;100.00;102631.47;2570554;30;138715;-41
2022/03/21 05:41:27;;;;;;;;;;;3.30;99.90;;;1.61;100.00;102635.34;2569430;30;139452;-41
2022/03/21 05:43:55;;;;;;;;;;;3.30;99.90;;;1.54;100.00;102629.53;2568195;30;136978;-41
2022/03/21 05:46:22;;;;;;;;;;;3.30;99.90;;;1.58;100.00;102637.25;2568226;30;139154;-41
2022/03/21 05:49:02;;;;;;;;;;;3.30;99.90;;;1.61;100.00;102636.19;2567772;30;137761;-41
2022/03/21 05:51:35;;;;;;;;;;;3.30;99.90;;;1.65;100.00;102637.69;2569048;30;137292;-41
2022/03/21 05:54:10;;;;;;;;;;;3.30;99.90;;;1.65;100.00;102642.22;2569300;30;136657;-41
2022/03/21 05:56:41;;;;;;;;;;;3.30;99.90;;;1.64;100.00;102644.03;2570406;30;138746;-41
2022/03/21 06:01:55;;;;;;;;;;;3.30;99.90;;;1.71;100.00;102655.25;2570301;30;139181;-41
2022/03/21 06:04:23;;;;;;;;;;;3.30;99.90;;;1.77;100.00;102652.09;2569649;30;137686;-40
2022/03/21 06:06:51;;;;;;;;;;;3.40;99.90;;;1.76;100.00;102658.47;2568939;30;139240;-41
2022/03/21 06:09:19;;;;;;;;;;;3.40;99.90;;;1.74;100.00;102664.94;2569405;30;137895;-41
2022/03/21 06:11:48;;;;;;;;;;;3.40;99.90;;;1.66;100.00;102660.94;2568344;30;139085;-41
2022/03/21 06:14:18;;;;;;;;;;;3.40;99.90;;;1.68;100.00;102666.22;2570131;30;136859;-41
2022/03/21 06:16:47;;;;;;;;;;;3.40;99.90;;;1.69;100.00;102665.25;2569932;30;138276;-41
2022/03/21 06:19:15;;;;;;;;;;;3.30;99.90;;;1.66;100.00;102670.88;2567947;30;137635;-41
2022/03/21 06:21:43;;;;;;;;;;;3.30;99.90;;;1.69;100.00;102681.41;2567539;30;137323;-41
2022/03/21 06:24:12;;;;;;;;;;;3.30;99.90;;;1.70;100.00;102672.38;2570370;30;136773;-41
2022/03/21 06:26:42;;;;;;;;;;;3.30;99.90;;;1.78;100.00;102680.75;2571938;30;138087;-41
2022/03/21 06:29:09;;;;;;;;;;;3.40;99.90;;;1.84;100.00;102682.16;2568259;30;137340;-41
2022/03/21 06:31:37;;;;;;;;;;;3.40;99.90;;;1.90;100.00;102679.00;2569845;30;138439;-41
2022/03/21 06:34:04;;;;;;;;;;;3.50;99.90;;;1.97;100.00;102685.66;2570740;30;137051;-41
2022/03/21 06:36:32;;;;;;;;;;;3.50;99.90;;;2.06;100.00;102683.31;2571691;30;136859;-42
2022/03/21 06:38:59;;;;;;;;;;;3.60;99.90;;;2.14;100.00;102683.59;2568042;30;138614;-41
2022/03/21 06:41:27;;;;;;;;;;;3.70;99.90;;;2.24;100.00;102681.09;2568923;30;138516;-41
2022/03/21 06:43:55;;;;;;;;;;;3.80;99.90;;;2.34;100.00;102684.00;2566914;30;137428;-41
2022/03/21 06:46:22;;;;;;;;;;;3.90;99.90;;;2.41;100.00;102680.75;2571699;30;138292;-43
2022/03/21 06:48:49;;;;;;;;;;;4.00;99.90;;;2.58;100.00;102684.00;2570968;30;137800;-41
2022/03/21 06:51:17;;;;;;;;;;;4.10;99.90;;;2.69;100.00;102689.47;2568570;30;139407;-41
2022/03/21 06:53:44;;;;;;;;;;;4.20;99.90;;;2.85;100.00;102691.00;2570295;30;137047;-41
2022/03/21 06:56:12;;;;;;;;;;;4.30;99.90;;;2.98;100.00;102702.59;2570374;30;137168;-41
2022/03/21 06:58:39;;;;;;;;;;;4.50;99.90;;;3.10;100.00;102694.53;2570688;30;137096;-44
2022/03/21 07:01:06;;;;;;;;;;;4.50;99.90;;;3.22;100.00;102698.13;2568388;30;137382;-42
2022/03/21 07:03:34;;;;;;;;;;;4.70;99.90;;;3.38;100.00;102697.81;2569530;30;137818;-41
2022/03/21 07:06:02;;;;;;;;;;;4.80;99.90;;;3.50;100.00;102693.28;2567797;30;137815;-41
2022/03/21 07:08:30;;;;;;;;;;;5.00;99.90;;;3.74;100.00;102704.88;2569801;30;137384;-41
2022/03/21 07:10:58;;;;;;;;;;;5.10;99.90;;;3.87;100.00;102696.66;2570291;30;137507;-41
2022/03/21 07:13:27;;;;;;;;;;;5.30;99.90;;;4.05;100.00;102701.56;2570579;30;137138;-41
2022/03/21 07:15:56;;;;;;;;;;;5.40;99.90;;;4.25;100.00;102708.06;2570731;30;139348;-41
2022/03/21 07:18:25;;;;;;;;;;;5.60;99.90;;;4.45;100.00;102692.91;2568382;30;137333;-41
2022/03/21 07:20:53;;;;;;;;;;;5.70;99.90;;;4.63;100.00;102702.34;2567887;30;137358;-41
2022/03/21 07:23:20;;;;;;;;;;;5.90;99.90;;;4.80;100.00;102703.66;2568319;30;137074;-41
2022/03/21 07:25:49;;;;;;;;;;;6.10;99.90;;;5.08;100.00;102707.59;2569290;30;139463;-41
2022/03/21 07:28:16;;;;;;;;;;;6.30;99.90;;;5.28;100.00;102707.75;2570157;30;137069;-41
2022/03/21 07:30:44;;;;;;;;;;;6.50;99.90;;;5.50;100.00;102708.63;2567504;30;139199;-42
2022/03/21 07:33:12;;;;;;;;;;;6.60;99.90;;;5.72;100.00;102710.31;2571250;30;137161;-41
2022/03/21 07:35:41;;;;;;;;;;;6.90;99.90;;;5.96;100.00;102706.44;2569570;30;138103;-41
2022/03/21 07:38:09;;;;;;;;;;;7.10;99.90;;;6.14;100.00;102701.25;2574305;30;138894;-40
2022/03/21 07:40:36;;;;;;;;;;;7.40;99.90;;;6.39;100.00;102713.50;2567693;30;136701;-40
2022/03/21 07:43:04;;;;;;;;;;;7.60;99.90;;;6.64;100.00;102704.97;2568976;30;137067;-40
2022/03/21 07:48:17;;;;;;;;;;;8.00;99.90;;;7.03;100.00;102708.56;2568924;30;137180;-40
2022/03/21 07:50:44;;;;;;;;;;;8.20;99.90;;;7.20;89.79;102703.44;2567219;30;138479;-40
2022/03/21 07:53:12;;;;;;;;;;;8.40;99.90;;;7.42;89.03;102710.41;2569000;30;137048;-40
2022/03/21 07:55:39;;;;;;;;;;;8.60;99.90;;;7.60;88.58;102720.53;2568986;30;138323;-40
2022/03/21 07:58:07;;;;;;;;;;;8.70;99.90;;;7.77;86.55;102714.31;2569724;30;136783;-40
2022/03/21 08:00:34;;;;;;;;;;;8.90;99.90;;;7.95;82.07;102716.28;2566095;30;137724;-40
2022/03/21 08:03:03;;;;;;;;;;;9.10;99.90;;;8.05;83.14;102724.41;2569654;30;137107;-40
2022/03/21 08:05:30;;;;;;;;;;;9.20;99.90;;;8.18;82.95;102724.06;2566285;30;138813;-40
2022/03/21 08:07:58;;;;;;;;;;;9.40;99.90;;;8.26;80.03;102732.31;2568916;30;136854;-40
2022/03/21 08:10:25;;;;;;;;;;;9.40;99.90;;;8.42;80.26;102728.94;2569377;30;139079;-40
2022/03/21 08:12:55;;;;;;;;;;;9.60;99.90;;;8.52;75.39;102731.63;2569209;30;137758;-40
2022/03/21 08:15:23;;;;;;;;;;;9.70;99.90;;;8.65;75.95;102731.28;2569621;30;138502;-40
2022/03/21 08:17:52;;;;;;;;;;;9.80;99.90;;;8.78;74.68;102734.50;2567859;30;137308;-40
2022/03/21 08:20:21;;;;;;;;;;;9.90;99.90;;;8.93;73.32;102728.50;2568927;30;136828;-40
2022/03/21 08:22:49;;;;;;;;;;;10.00;99.90;;;9.07;72.83;102733.41;2569556;30;136950;-40
2022/03/21 08:25:18;;;;;;;;;;;10.20;99.90;;;9.21;72.83;102731.13;2569713;30;137583;-40
2022/03/21 08:27:46;;;;;;;;;;;10.30;99.90;;;9.40;72.53;102730.09;2567651;30;138343;-40
2022/03/21 08:30:15;;;;;;;;;;;10.50;99.90;;;9.45;69.95;102725.06;2569407;30;137401;-40
2022/03/21 08:32:44;;;;;;;;;;;10.60;99.90;;;9.62;68.94;102733.34;2568766;30;137090;-41
2022/03/21 08:35:13;;;;;;;;;;;10.70;99.90;;;9.74;67.60;102736.66;2566522;30;138434;-40
2022/03/21 08:37:41;;;;;;;;;;;10.90;99.90;;;9.71;64.10;102736.97;2568253;30;137764;-40
2022/03/21 08:40:09;;;;;;;;;;;10.90;98.30;;;9.79;64.94;102729.72;2567073;30;138636;-40
2022/03/21 08:42:37;;;;;;;;;;;11.00;98.50;;;9.91;65.06;102741.19;2567963;30;136690;-40
2022/03/21 08:45:07;;;;;;;;;;;11.10;98.70;;;10.02;64.90;102731.03;2568809;30;137273;-40
2022/03/21 08:47:35;;;;;;;;;;;11.20;98.60;;;10.14;64.75;102729.75;2568000;30;136751;-40
2022/03/21 08:50:03;;;;;;;;;;;11.20;98.30;;;10.23;63.96;102730.63;2568855;30;137366;-40
2022/03/21 08:52:31;;;;;;;;;;;11.40;98.00;;;10.35;63.23;102728.47;2566937;30;137044;-40
2022/03/21 08:54:58;;;;;;;;;;;11.40;97.30;;;10.43;63.72;102724.94;2567910;30;139208;-41
2022/03/21 08:57:26;;;;;;;;;;;11.60;97.20;;;10.55;64.67;102720.03;2566271;30;138117;-40
2022/03/21 08:59:53;;;;;;;;;;;11.70;98.20;;;10.71;62.86;102721.94;2568579;30;138412;-40
2022/03/21 09:02:21;;;;;;;;;;;11.80;97.00;;;10.78;62.13;102726.56;2568100;30;137062;-40
2022/03/21 09:04:48;;;;;;;;;;;11.90;96.30;;;10.91;62.78;102723.34;2568441;30;138411;-40
2022/03/21 09:07:16;;;;;;;;;;;12.00;96.60;;;10.95;62.29;102732.06;2569261;30;137115;-40
2022/03/21 09:09:43;;;;;;;;;;;12.00;96.30;;;10.98;62.81;102733.59;2568153;30;138350;-40
2022/03/21 09:12:11;;;;;;;;;;;12.10;96.40;;;11.04;61.06;102728.31;2567137;30;137240;-40
2022/03/21 09:14:39;;;;;;;;;;;12.20;95.00;;;11.11;62.37;102733.09;2568963;30;138455;-40
2022/03/21 09:17:06;;;;;;;;;;;12.30;95.80;;;11.26;63.44;102725.06;2568312;30;137060;-40
2022/03/21 09:19:34;;;;;;;;;;;12.40;97.10;;;11.36;62.17;102721.16;2567686;30;139158;-40
2022/03/21 09:22:02;;;;;;;;;;;12.40;96.30;;;11.43;60.71;102726.78;2569074;30;137072;-41
2022/03/21 09:24:30;;;;;;;;;;;12.50;95.10;;;11.50;59.94;102719.59;2568599;30;138455;-40
2022/03/21 09:26:57;;;;;;;;;;;12.60;94.50;;;11.55;59.23;102729.19;2568372;30;137859;-40
2022/03/21 09:29:25;;;;;;;;;;;12.70;94.20;;;11.61;59.52;102725.75;2568820;30;139030;-40
2022/03/21 09:31:53;;;;;;;;;;;12.70;93.90;;;11.71;59.79;102729.16;2567297;30;137136;-40
2022/03/21 09:34:20;;;;;;;;;;;12.80;93.80;;;11.85;61.54;102729.47;2568349;30;137829;-41
2022/03/21 09:36:48;;;;;;;;;;;12.90;95.00;;;11.94;60.04;102723.81;2567651;30;138022;-40
2022/03/21 09:39:15;;;;;;;;;;;13.00;94.30;;;12.06;58.98;102728.94;2566825;30;138235;-40
2022/03/21 09:41:44;;;;;;;;;;;13.10;93.30;;;12.14;59.15;102720.69;2565373;30;137364;-40
2022/03/21 09:44:12;;;;;;;;;;;13.20;93.50;;;12.26;58.11;102729.38;2566298;30;139196;-40
2022/03/21 09:46:42;;;;;;;;;;;13.30;92.50;;;12.38;58.26;102729.81;2568065;30;138145;-40
2022/03/21 09:49:14;;;;;;;;;;;13.40;93.00;;;12.44;56.71;102726.38;2568279;30;137254;-40
2022/03/21 09:51:44;;;;;;;;;;;13.50;91.60;;;12.52;59.47;102723.59;2567744;30;137014;-40
2022/03/21 09:54:12;;;;;;;;;;;13.60;93.30;;;12.58;57.67;102721.19;2567291;30;137291;-40
2022/03/21 09:56:39;;;;;;;;;;;13.60;92.00;;;12.65;56.47;102716.69;2568533;30;137351;-41
2022/03/21 09:59:08;;;;;;;;;;;13.70;90.80;;;12.71;56.20;102723.34;2569044;30;137368;-40
2022/03/21 10:01:37;;;;;;;;;;;13.80;91.20;;;12.77;55.08;102715.25;2569083;30;136909;-41
2022/03/21 10:04:06;;;;;;;;;;;13.80;90.30;;;12.81;55.85;102693.81;2566919;30;138215;-40
2022/03/21 10:06:40;;;;;;;;;;;14.00;90.50;;;12.94;53.66;102715.13;2568253;30;137070;-40
2022/03/21 10:09:19;;;;;;;;;;;14.00;88.90;;;13.01;54.00;102718.88;2568732;30;138489;-40
2022/03/21 10:11:57;;;;;;;;;;;14.10;86.40;;;13.20;55.53;102723.00;2567559;30;137700;-40
2022/03/21 10:14:33;;;;;;;;;;;14.20;90.30;;;13.26;55.71;102715.94;2569238;30;138322;-40
2022/03/21 10:17:22;;;;;;;;;;;14.30;90.00;;;13.31;54.47;102716.22;2567256;30;137452;-40
2022/03/21 10:19:53;;;;;;;;;;;14.30;87.90;;;13.44;54.90;102709.28;2564889;30;139288;-40
2022/03/21 10:22:33;;;;;;;;;;;14.40;89.60;;;13.52;53.76;102709.19;2567511;30;136896;-40
2022/03/21 10:25:10;;;;;;;;;;;14.50;88.20;;;13.68;54.94;102691.75;2568935;30;137268;-40
2022/03/21 10:27:45;;;;;;;;;;;14.70;89.40;;;13.87;54.08;102712.28;2568218;30;138016;-40
2022/03/21 10:30:15;;;;;;;;;;;14.80;87.70;;;14.01;53.82;102707.81;2566961;30;137828;-40
2022/03/21 10:32:46;;;;;;;;;;;14.90;87.80;;;14.04;52.61;102715.66;2567644;30;137294;-40
2022/03/21 10:35:29;;;;;;;;;;;15.00;85.70;;;14.10;52.44;102700.34;2566997;30;137429;-40
2022/03/21 10:37:58;;;;;;;;;;;15.00;85.60;;;14.18;52.02;102702.97;2567992;30;137028;-40
2022/03/21 10:40:41;;;;;;;;;;;15.10;84.60;;;14.22;52.96;102704.28;2567223;30;139001;-40
2022/03/21 10:43:11;;;;;;;;;;;15.20;85.60;;;14.34;52.83;102701.06;2568110;30;137141;-40
2022/03/21 10:45:38;;;;;;;;;;;15.40;84.80;;;14.44;54.02;102709.84;2568880;30;137501;-40
2022/03/21 10:48:20;;;;;;;;;;;15.40;87.30;;;14.53;52.55;102694.94;2567983;30;137364;-40
2022/03/21 10:50:53;;;;;;;;;;;15.50;85.20;;;14.68;53.54;102699.56;2567049;30;137452;-40
2022/03/21 10:53:25;;;;;;;;;;;15.60;85.90;;;14.76;53.44;102693.97;2567872;30;137085;-40
2022/03/21 10:55:58;;;;;;;;;;;15.70;85.60;;;14.88;52.57;102697.06;2567786;30;138086;-40
2022/03/21 10:58:36;;;;;;;;;;;15.90;85.10;;;14.98;52.49;102696.72;2566888;30;138060;-40
2022/03/21 11:01:14;;;;;;;;;;;15.90;84.90;;;15.06;50.53;102682.84;2569866;30;138601;-40
2022/03/21 11:03:44;;;;;;;;;;;16.00;84.60;;;15.22;53.54;102689.13;2566390;30;137522;-40
2022/03/21 11:06:13;;;;;;;;;;;16.10;86.50;;;15.24;50.61;102685.09;2569609;30;139054;-40
2022/03/21 11:08:41;;;;;;;;;;;16.20;82.30;;;15.33;50.30;102694.06;2569436;30;136807;-41
2022/03/21 11:11:09;;;;;;;;;;;16.30;82.00;;;15.39;52.75;102689.69;2568548;30;139030;-40
2022/03/21 11:13:38;;;;;;;;;;;16.40;84.20;;;15.50;52.34;102693.78;2568153;30;137163;-40
2022/03/21 11:16:06;;;;;;;;;;;16.50;83.70;;;15.64;51.86;102689.22;2567957;30;138334;-40
2022/03/21 11:18:33;;;;;;;;;;;16.60;84.30;;;15.69;51.34;102692.22;2566887;30;137338;-40
2022/03/21 11:21:01;;;;;;;;;;;16.60;83.00;;;15.72;49.40;102688.22;2568095;30;137710;-40
2022/03/21 11:23:30;;;;;;;;;;;16.70;80.30;;;15.78;50.66;102684.66;2566128;30;137583;-40
2022/03/21 11:26:39;;;;;;;;;;;16.70;81.90;;;15.91;51.71;102684.78;2568809;30;137272;-40
2022/03/21 11:29:15;;;;;;;;;;;16.80;82.40;;;16.01;51.51;102681.63;2566969;30;137376;-40
2022/03/21 11:31:51;;;;;;;;;;;17.00;82.40;;;16.13;50.40;102684.66;2568414;30;138280;-41
2022/03/21 11:34:56;;;;;;;;;;;17.10;82.20;;;16.21;51.22;102681.75;2567367;30;136685;-40
2022/03/21 11:37:31;;;;;;;;;;;17.20;81.70;;;16.31;50.52;102672.25;2567028;30;138351;-40
2022/03/21 11:40:24;;;;;;;;;;;17.30;80.80;;;16.35;49.80;102676.28;2569467;30;137031;-40
2022/03/21 11:42:53;;;;;;;;;;;17.30;81.80;;;16.43;51.07;102680.75;2569453;30;137188;-40
2022/03/21 11:45:25;;;;;;;;;;;17.40;81.90;;;16.48;49.44;102680.97;2568979;30;137098;-40
2022/03/21 11:48:17;;;;;;;;;;;17.40;79.80;;;16.58;50.20;102675.09;2568333;30;138356;-40
2022/03/21 11:50:46;;;;;;;;;;;17.50;81.10;;;16.57;48.52;102679.72;2569501;30;137782;-40
2022/03/21 11:53:15;;;;;;;;;;;17.60;77.90;;;16.66;51.50;102670.22;2567725;30;137400;-40
2022/03/21 11:55:44;;;;;;;;;;;17.70;82.10;;;16.64;50.99;102671.50;2567679;30;137858;-40
2022/03/21 11:58:41;;;;;;;;;;;17.70;80.20;;;16.76;50.03;102666.22;2569035;30;138290;-40
2022/03/21 12:01:15;;;;;;;;;;;17.70;80.60;;;16.83;49.95;102664.31;2567011;30;137278;-40
2022/03/21 12:03:43;;;;;;;;;;;17.80;79.90;;;16.90;50.09;102669.84;2567566;30;137211;-40
2022/03/21 12:06:24;;;;;;;;;;;17.90;80.20;;;17.00;50.35;102672.22;2565160;30;137238;-40
2022/03/21 12:08:53;;;;;;;;;;;17.90;81.70;;;17.09;50.13;102674.56;2569478;30;136675;-41
2022/03/21 12:11:39;;;;;;;;;;;18.00;79.50;;;17.17;49.09;102667.13;2568273;30;136969;-40
2022/03/21 12:14:21;;;;;;;;;;;18.10;79.60;;;17.16;49.40;102658.03;2567947;30;137467;-39
2022/03/21 12:17:11;;;;;;;;;;;18.10;79.00;;;17.36;49.47;102657.13;2566541;30;137326;-40
2022/03/21 12:20:02;;;;;;;;;;;18.20;78.80;;;17.42;48.53;102656.31;2569249;30;138585;-40
2022/03/21 12:22:51;;;;;;;;;;;18.30;79.30;;;17.55;49.05;102644.41;2567917;30;137299;-40
2022/03/21 12:25:28;;;;;;;;;;;18.50;79.10;;;17.59;50.08;102653.94;2569278;30;138281;-41
2022/03/21 12:27:58;;;;;;;;;;;18.50;79.90;;;17.67;48.89;102650.94;2567911;30;136835;-40
2022/03/21 12:30:31;;;;;;;;;;;18.60;78.90;;;17.67;46.85;102647.34;2566222;30;137185;-40
2022/03/21 12:33:13;;;;;;;;;;;18.60;76.10;;;17.74;47.97;102644.53;2568424;30;136866;-39
2022/03/21 12:35:44;;;;;;;;;;;18.70;78.20;;;17.78;47.87;102656.88;2569130;30;137901;-40
2022/03/21 12:38:34;;;;;;;;;;;18.80;77.10;;;17.80;47.96;102649.22;2568645;30;137256;-40
2022/03/21 12:41:05;;;;;;;;;;;18.80;76.30;;;17.88;47.93;102648.97;2568206;30;138291;-40
2022/03/21 12:43:32;;;;;;;;;;;18.80;77.50;;;17.92;47.67;102644.72;2566788;30;137394;-40
2022/03/21 12:46:06;;;;;;;;;;;18.80;76.60;;;17.89;48.62;102645.16;2569423;30;138593;-40
2022/03/21 12:48:46;;;;;;;;;;;18.90;77.40;;;17.92;49.60;102638.34;2569046;30;136934;-40
2022/03/21 12:51:24;;;;;;;;;;;18.90;78.40;;;17.93;49.61;102643.63;2567903;30;138136;-40
2022/03/21 12:54:12;;;;;;;;;;;18.90;78.60;;;17.98;49.71;102643.81;2568647;30;137168;-40
2022/03/21 12:56:39;;;;;;;;;;;19.00;78.30;;;17.98;50.37;102631.94;2568949;30;139435;-41
2022/03/21 12:59:07;;;;;;;;;;;19.00;78.70;;;17.88;50.16;102637.94;2569623;30;137642;-40
2022/03/21 13:01:42;;;;;;;;;;;19.00;78.20;;;17.86;48.54;102631.78;2568473;30;138208;-40
2022/03/21 13:12:41;;;;;;;;;;;19.10;78.30;;;18.31;50.34;102625.44;2566635;30;138245;-41
2022/03/21 13:15:11;;;;;;;;;;;19.30;79.70;;;18.40;47.45;102628.81;2568054;30;137359;-41
2022/03/21 13:17:51;;;;;;;;;;;19.40;75.50;;;18.45;47.42;102620.69;2568994;30;137605;-40
2022/03/21 13:20:29;;;;;;;;;;;19.40;75.80;;;18.40;49.09;102623.28;2567231;30;137203;-40
2022/03/21 13:22:58;;;;;;;;;;;19.50;77.80;;;18.38;47.40;102619.88;2568362;30;138121;-41
2022/03/21 13:25:37;;;;;;;;;;;19.50;75.80;;;18.46;49.34;102624.31;2569925;30;136967;-40